createdAt,value
2017-09-01T00:01:00.375Z,0
2017-09-01T00:02:00.691Z,0
2017-09-01T00:02:59.649Z,0
2017-09-01T00:04:00.834Z,0
2017-09-01T00:05:00.835Z,0
2017-09-01T00:06:00.039Z,0
2017-09-01T00:06:59.852Z,0
2017-09-01T00:08:00.509Z,0
2017-09-01T00:09:00.203Z,0
2017-09-01T00:10:00.545Z,0
2017-09-01T00:11:00.693Z,0
2017-09-01T00:12:00.245Z,0
2017-09-01T00:13:00.903Z,0
2017-09-01T00:14:00.581Z,0
2017-09-01T00:15:00.664Z,0
2017-09-01T00:16:00.260Z,0
2017-09-01T00:17:12.730Z,0
2017-09-01T00:18:00.085Z,0
2017-09-01T00:19:00.084Z,0
2017-09-01T00:20:00.390Z,0
2017-09-01T00:21:00.401Z,0
2017-09-01T00:22:00.434Z,0
2017-09-01T00:23:00.816Z,0
2017-09-01T00:24:00.470Z,0
2017-09-01T00:25:00.152Z,0
2017-09-01T00:26:00.820Z,0
2017-09-01T00:27:00.858Z,0
2017-09-01T00:28:00.882Z,0
2017-09-01T00:29:00.570Z,0
2017-09-01T00:30:00.945Z,0
2017-09-01T00:31:00.616Z,0
2017-09-01T00:32:00.956Z,0
2017-09-01T00:33:00.976Z,0
2017-09-01T00:34:01.010Z,0
2017-09-01T00:35:00.376Z,0
2017-09-01T00:36:00.397Z,0
2017-09-01T00:37:00.746Z,0
2017-09-01T00:38:00.786Z,0
2017-09-01T00:39:01.114Z,0
2017-09-01T00:40:00.493Z,0
2017-09-01T00:41:01.162Z,0
2017-09-01T00:42:00.536Z,0
2017-09-01T00:43:00.885Z,0
2017-09-01T00:44:00.584Z,0
2017-09-01T00:45:00.604Z,0
2017-09-01T00:46:01.275Z,0
2017-09-01T00:47:01.399Z,0
2017-09-01T00:48:01.402Z,0
2017-09-01T00:49:01.079Z,0
2017-09-01T00:50:01.201Z,0
2017-09-01T00:51:01.734Z,0
2017-09-01T00:52:01.417Z,0
2017-09-01T00:53:01.430Z,0
2017-09-01T00:54:01.461Z,0
2017-09-01T00:55:01.473Z,0
2017-09-01T00:56:01.020Z,0
2017-09-01T00:57:01.515Z,0
2017-09-01T00:58:01.547Z,0
2017-09-01T00:59:01.337Z,0
2017-09-01T01:00:00.709Z,0
2017-09-01T01:01:01.287Z,0
2017-09-01T01:02:01.953Z,0
2017-09-01T01:03:01.331Z,0
2017-09-01T01:04:01.024Z,0
2017-09-01T01:05:02.224Z,0
2017-09-01T01:06:01.771Z,0
2017-09-01T01:07:01.425Z,0
2017-09-01T01:08:01.460Z,0
2017-09-01T01:09:02.230Z,0
2017-09-01T01:10:01.774Z,0
2017-09-01T01:11:01.620Z,0
2017-09-01T01:12:01.635Z,0
2017-09-01T01:13:01.230Z,0
2017-09-01T01:14:02.221Z,0
2017-09-01T01:15:01.623Z,0
2017-09-01T01:16:01.945Z,0
2017-09-01T01:17:02.005Z,0
2017-09-01T01:18:02.261Z,0
2017-09-01T01:19:01.592Z,0
2017-09-01T01:20:02.236Z,0
2017-09-01T01:21:01.928Z,0
2017-09-01T01:22:01.925Z,0
2017-09-01T01:23:02.312Z,0
2017-09-01T01:24:01.805Z,0
2017-09-01T01:25:02.260Z,0
2017-09-01T01:26:02.289Z,0
2017-09-01T01:27:02.287Z,0
2017-09-01T01:28:01.569Z,0
2017-09-01T01:29:02.079Z,0
2017-09-01T01:30:02.403Z,0
2017-09-01T01:31:02.405Z,0
2017-09-01T01:32:02.420Z,0
2017-09-01T01:33:02.084Z,0
2017-09-01T01:34:02.109Z,0
2017-09-01T01:35:02.445Z,0
2017-09-01T01:36:02.591Z,0
2017-09-01T01:37:02.475Z,0
2017-09-01T01:38:02.485Z,0
2017-09-01T01:39:02.796Z,0
2017-09-01T01:40:02.582Z,0
2017-09-01T01:41:01.941Z,0
2017-09-01T01:42:02.526Z,0
2017-09-01T01:43:01.974Z,0
2017-09-01T01:44:02.403Z,0
2017-09-01T01:45:01.935Z,0
2017-09-01T01:46:02.301Z,0
2017-09-01T01:47:02.070Z,0
2017-09-01T01:48:02.097Z,0
2017-09-01T01:49:02.439Z,0
2017-09-01T01:50:02.589Z,0
2017-09-01T01:51:02.800Z,0
2017-09-01T01:52:02.269Z,0
2017-09-01T01:53:02.764Z,0
2017-09-01T01:54:02.600Z,0
2017-09-01T01:55:03.130Z,0
2017-09-01T01:56:02.565Z,0
2017-09-01T01:57:02.683Z,0
2017-09-01T01:58:02.872Z,0
2017-09-01T01:59:02.736Z,0
2017-09-01T02:00:03.254Z,0
2017-09-01T02:01:02.946Z,0
2017-09-01T02:02:02.994Z,0
2017-09-01T02:03:02.664Z,0
2017-09-01T02:04:02.383Z,0
2017-09-01T02:05:03.353Z,0
2017-09-01T02:06:02.404Z,0
2017-09-01T02:07:02.821Z,0
2017-09-01T02:08:03.106Z,0
2017-09-01T02:09:03.254Z,0
2017-09-01T02:10:02.974Z,0
2017-09-01T02:11:02.624Z,0
2017-09-01T02:12:02.990Z,0
2017-09-01T02:13:03.212Z,0
2017-09-01T02:14:03.295Z,0
2017-09-01T02:15:03.113Z,0
2017-09-01T02:16:03.028Z,0
2017-09-01T02:17:03.111Z,0
2017-09-01T02:18:03.347Z,0
2017-09-01T02:19:03.120Z,0
2017-09-01T02:20:03.680Z,0
2017-09-01T02:21:03.257Z,0
2017-09-01T02:22:03.412Z,0
2017-09-01T02:23:03.759Z,0
2017-09-01T02:24:03.776Z,0
2017-09-01T02:25:03.471Z,0
2017-09-01T02:26:03.216Z,0
2017-09-01T02:27:03.534Z,0
2017-09-01T02:28:02.904Z,0
2017-09-01T02:29:03.895Z,0
2017-09-01T02:30:03.256Z,0
2017-09-01T02:31:03.621Z,0
2017-09-01T02:32:03.940Z,0
2017-09-01T02:33:03.318Z,0
2017-09-01T02:34:03.356Z,0
2017-09-01T02:35:03.799Z,0
2017-09-01T02:36:03.509Z,0
2017-09-01T02:37:03.499Z,0
2017-09-01T02:38:03.663Z,0
2017-09-01T02:39:03.654Z,0
2017-09-01T02:40:03.381Z,0
2017-09-01T02:41:03.979Z,0
2017-09-01T02:42:03.548Z,0
2017-09-01T02:43:03.337Z,0
2017-09-01T02:44:03.939Z,0
2017-09-01T02:45:04.114Z,0
2017-09-01T02:46:03.295Z,0
2017-09-01T02:47:03.955Z,0
2017-09-01T02:48:03.979Z,0
2017-09-01T02:49:03.689Z,0
2017-09-01T02:50:04.019Z,0
2017-09-01T02:51:04.373Z,0
2017-09-01T02:52:03.819Z,0
2017-09-01T02:53:04.074Z,0
2017-09-01T02:54:04.112Z,0
2017-09-01T02:55:03.549Z,0
2017-09-01T02:56:04.149Z,0
2017-09-01T02:57:04.496Z,0
2017-09-01T02:58:03.579Z,0
2017-09-01T02:59:03.895Z,0
2017-09-01T03:00:04.682Z,0
2017-09-01T03:01:04.485Z,0
2017-09-01T03:02:04.487Z,0
2017-09-01T03:03:04.490Z,0
2017-09-01T03:04:04.435Z,0
2017-09-01T03:05:04.706Z,0
2017-09-01T03:06:04.491Z,0
2017-09-01T03:07:04.491Z,0
2017-09-01T03:08:04.422Z,0
2017-09-01T03:09:04.631Z,0
2017-09-01T03:10:04.637Z,0
2017-09-01T03:11:04.483Z,0
2017-09-01T03:12:04.314Z,0
2017-09-01T03:13:03.969Z,0
2017-09-01T03:14:03.992Z,0
2017-09-01T03:15:04.637Z,0
2017-09-01T03:16:04.268Z,0
2017-09-01T03:17:04.278Z,0
2017-09-01T03:18:04.305Z,0
2017-09-01T03:19:04.663Z,0
2017-09-01T03:20:04.464Z,0
2017-09-01T03:21:05.030Z,0
2017-09-01T03:22:04.872Z,0
2017-09-01T03:23:04.423Z,0
2017-09-01T03:24:04.770Z,0
2017-09-01T03:25:04.782Z,0
2017-09-01T03:26:04.804Z,0
2017-09-01T03:27:04.505Z,0
2017-09-01T03:28:04.856Z,0
2017-09-01T03:29:04.885Z,0
2017-09-01T03:30:04.582Z,0
2017-09-01T03:31:04.922Z,0
2017-09-01T03:32:04.951Z,0
2017-09-01T03:33:04.958Z,0
2017-09-01T03:34:04.992Z,0
2017-09-01T03:35:04.724Z,0
2017-09-01T03:36:04.053Z,0
2017-09-01T03:37:04.723Z,0
2017-09-01T03:38:04.762Z,0
2017-09-01T03:39:04.766Z,0
2017-09-01T03:40:04.603Z,0
2017-09-01T03:41:05.226Z,0
2017-09-01T03:42:05.602Z,0
2017-09-01T03:43:05.614Z,0
2017-09-01T03:44:05.274Z,0
2017-09-01T03:45:05.422Z,0
2017-09-01T03:46:05.252Z,0
2017-09-01T03:47:05.278Z,0
2017-09-01T03:48:04.639Z,0
2017-09-01T03:49:04.667Z,0
2017-09-01T03:50:05.745Z,0
2017-09-01T03:51:05.024Z,0
2017-09-01T03:52:04.720Z,0
2017-09-01T03:53:05.549Z,0
2017-09-01T03:54:04.814Z,0
2017-09-01T03:55:04.467Z,0
2017-09-01T03:56:05.131Z,0
2017-09-01T03:57:05.640Z,0
2017-09-01T03:58:05.632Z,0
2017-09-01T03:59:05.631Z,0
2017-09-01T04:00:04.944Z,0
2017-09-01T04:01:04.929Z,0
2017-09-01T04:02:05.666Z,0
2017-09-01T04:03:05.610Z,0
2017-09-01T04:04:05.729Z,0
2017-09-01T04:05:05.452Z,0
2017-09-01T04:06:05.456Z,0
2017-09-01T04:07:05.764Z,0
2017-09-01T04:08:05.463Z,0
2017-09-01T04:09:05.762Z,0
2017-09-01T04:10:05.460Z,0
2017-09-01T04:11:05.790Z,0
2017-09-01T04:12:05.171Z,0
2017-09-01T04:13:05.502Z,0
2017-09-01T04:14:05.540Z,0
2017-09-01T04:15:06.189Z,0
2017-09-01T04:16:05.889Z,0
2017-09-01T04:17:06.440Z,0
2017-09-01T04:18:05.296Z,0
2017-09-01T04:19:05.755Z,0
2017-09-01T04:20:05.758Z,0
2017-09-01T04:21:05.905Z,0
2017-09-01T04:22:05.909Z,0
2017-09-01T04:23:06.573Z,0
2017-09-01T04:24:05.123Z,0
2017-09-01T04:25:06.124Z,0
2017-09-01T04:26:06.444Z,0
2017-09-01T04:27:06.457Z,0
2017-09-01T04:28:06.167Z,0
2017-09-01T04:29:06.050Z,0
2017-09-01T04:30:06.522Z,0
2017-09-01T04:31:06.224Z,0
2017-09-01T04:32:06.551Z,0
2017-09-01T04:33:05.290Z,0
2017-09-01T04:34:05.959Z,0
2017-09-01T04:35:05.651Z,0
2017-09-01T04:36:06.321Z,0
2017-09-01T04:37:05.701Z,0
2017-09-01T04:38:06.056Z,0
2017-09-01T04:39:06.719Z,0
2017-09-01T04:40:06.734Z,0
2017-09-01T04:41:06.425Z,0
2017-09-01T04:42:05.733Z,0
2017-09-01T04:43:06.490Z,0
2017-09-01T04:44:06.181Z,0
2017-09-01T04:45:06.518Z,0
2017-09-01T04:46:06.213Z,0
2017-09-01T04:47:06.564Z,0
2017-09-01T04:48:05.934Z,0
2017-09-01T04:49:06.623Z,0
2017-09-01T04:50:06.634Z,0
2017-09-01T04:51:06.981Z,0
2017-09-01T04:52:06.995Z,0
2017-09-01T04:53:06.731Z,0
2017-09-01T04:54:06.389Z,0
2017-09-01T04:55:07.063Z,0
2017-09-01T04:56:06.618Z,0
2017-09-01T04:57:06.325Z,0
2017-09-01T04:58:06.964Z,0
2017-09-01T04:59:06.314Z,0
2017-09-01T05:00:06.634Z,0
2017-09-01T05:01:06.638Z,5
2017-09-01T05:02:06.466Z,5
2017-09-01T05:03:07.096Z,5
2017-09-01T05:04:06.611Z,0
2017-09-01T05:05:07.055Z,0
2017-09-01T05:06:07.502Z,0
2017-09-01T05:07:07.184Z,0
2017-09-01T05:08:07.070Z,5
2017-09-01T05:09:06.391Z,5
2017-09-01T05:10:07.515Z,5
2017-09-01T05:11:07.184Z,5
2017-09-01T05:12:06.550Z,5
2017-09-01T05:13:06.905Z,5
2017-09-01T05:14:07.037Z,5
2017-09-01T05:15:06.909Z,5
2017-09-01T05:16:07.263Z,5
2017-09-01T05:17:06.903Z,5
2017-09-01T05:18:07.398Z,5
2017-09-01T05:19:07.602Z,5
2017-09-01T05:20:07.079Z,5
2017-09-01T05:21:07.221Z,5
2017-09-01T05:22:07.732Z,5
2017-09-01T05:23:06.795Z,5
2017-09-01T05:24:06.794Z,5
2017-09-01T05:25:06.990Z,10
2017-09-01T05:26:07.183Z,10
2017-09-01T05:27:07.746Z,10
2017-09-01T05:28:07.767Z,10
2017-09-01T05:29:07.151Z,10
2017-09-01T05:30:07.551Z,10
2017-09-01T05:31:07.613Z,10
2017-09-01T05:32:07.215Z,10
2017-09-01T05:33:08.055Z,10
2017-09-01T05:34:06.945Z,10
2017-09-01T05:35:08.054Z,10
2017-09-01T05:36:07.728Z,10
2017-09-01T05:37:06.994Z,10
2017-09-01T05:38:07.668Z,10
2017-09-01T05:39:07.359Z,10
2017-09-01T05:40:07.731Z,10
2017-09-01T05:41:07.411Z,10
2017-09-01T05:42:07.108Z,10
2017-09-01T05:43:08.022Z,10
2017-09-01T05:44:07.875Z,10
2017-09-01T05:45:08.332Z,5
2017-09-01T05:46:08.365Z,5
2017-09-01T05:47:07.644Z,5
2017-09-01T05:48:08.000Z,5
2017-09-01T05:49:08.220Z,10
2017-09-01T05:50:07.709Z,10
2017-09-01T05:51:08.026Z,10
2017-09-01T05:52:07.826Z,10
2017-09-01T05:53:08.031Z,10
2017-09-01T05:54:07.714Z,10
2017-09-01T05:55:07.708Z,10
2017-09-01T05:56:07.480Z,10
2017-09-01T05:57:07.476Z,10
2017-09-01T05:58:07.475Z,10
2017-09-01T05:59:07.790Z,10
2017-09-01T06:00:08.153Z,10
2017-09-01T06:01:07.833Z,10
2017-09-01T06:02:07.621Z,10
2017-09-01T06:03:07.880Z,10
2017-09-01T06:04:07.905Z,10
2017-09-01T06:05:07.328Z,15
2017-09-01T06:06:08.280Z,15
2017-09-01T06:07:08.714Z,15
2017-09-01T06:08:08.493Z,15
2017-09-01T06:09:08.439Z,15
2017-09-01T06:10:08.115Z,15
2017-09-01T06:11:08.569Z,15
2017-09-01T06:12:07.796Z,15
2017-09-01T06:13:08.591Z,15
2017-09-01T06:14:07.909Z,15
2017-09-01T06:15:08.579Z,15
2017-09-01T06:16:08.275Z,15
2017-09-01T06:17:08.574Z,15
2017-09-01T06:18:08.920Z,15
2017-09-01T06:19:08.781Z,15
2017-09-01T06:20:08.759Z,15
2017-09-01T06:21:08.655Z,10
2017-09-01T06:22:08.676Z,10
2017-09-01T06:23:08.120Z,10
2017-09-01T06:24:07.832Z,15
2017-09-01T06:25:08.105Z,15
2017-09-01T06:26:08.370Z,15
2017-09-01T06:27:08.721Z,15
2017-09-01T06:28:08.764Z,15
2017-09-01T06:29:08.471Z,15
2017-09-01T06:30:09.313Z,15
2017-09-01T06:31:08.807Z,15
2017-09-01T06:32:08.944Z,15
2017-09-01T06:33:08.845Z,15
2017-09-01T06:34:08.221Z,15
2017-09-01T06:35:09.328Z,15
2017-09-01T06:36:08.591Z,15
2017-09-01T06:37:08.935Z,15
2017-09-01T06:38:08.638Z,15
2017-09-01T06:39:08.660Z,15
2017-09-01T06:40:09.006Z,15
2017-09-01T06:41:08.380Z,15
2017-09-01T06:42:08.433Z,15
2017-09-01T06:43:09.501Z,15
2017-09-01T06:44:09.088Z,15
2017-09-01T06:45:09.442Z,15
2017-09-01T06:46:08.491Z,15
2017-09-01T06:47:08.831Z,15
2017-09-01T06:48:08.891Z,15
2017-09-01T06:49:09.213Z,15
2017-09-01T06:50:08.905Z,15
2017-09-01T06:51:08.934Z,15
2017-09-01T06:52:09.277Z,15
2017-09-01T06:53:08.978Z,15
2017-09-01T06:54:09.313Z,15
2017-09-01T06:55:09.144Z,15
2017-09-01T06:56:09.785Z,15
2017-09-01T06:57:09.059Z,15
2017-09-01T06:58:09.098Z,20
2017-09-01T06:59:09.439Z,20
2017-09-01T07:00:09.129Z,20
2017-09-01T07:01:08.814Z,20
2017-09-01T07:02:09.154Z,20
2017-09-01T07:03:09.838Z,20
2017-09-01T07:04:08.690Z,20
2017-09-01T07:05:09.563Z,20
2017-09-01T07:06:09.897Z,20
2017-09-01T07:07:09.269Z,20
2017-09-01T07:08:09.614Z,20
2017-09-01T07:09:09.633Z,20
2017-09-01T07:10:09.045Z,25
2017-09-01T07:11:09.500Z,20
2017-09-01T07:12:10.002Z,20
2017-09-01T07:13:09.919Z,20
2017-09-01T07:14:09.425Z,25
2017-09-01T07:15:10.183Z,25
2017-09-01T07:16:09.671Z,20
2017-09-01T07:17:10.233Z,20
2017-09-01T07:18:10.398Z,20
2017-09-01T07:19:09.980Z,20
2017-09-01T07:20:09.260Z,20
2017-09-01T07:21:09.904Z,20
2017-09-01T07:22:09.619Z,20
2017-09-01T07:23:09.751Z,20
2017-09-01T07:24:10.161Z,20
2017-09-01T07:25:10.371Z,20
2017-09-01T07:26:09.973Z,25
2017-09-01T07:27:09.729Z,25
2017-09-01T07:28:09.431Z,30
2017-09-01T07:29:09.450Z,30
2017-09-01T07:30:09.133Z,35
2017-09-01T07:31:09.481Z,35
2017-09-01T07:32:10.229Z,35
2017-09-01T07:33:09.870Z,30
2017-09-01T07:34:10.210Z,30
2017-09-01T07:35:09.899Z,30
2017-09-01T07:36:10.041Z,30
2017-09-01T07:37:09.620Z,35
2017-09-01T07:38:09.968Z,35
2017-09-01T07:39:10.317Z,35
2017-09-01T07:40:10.037Z,35
2017-09-01T07:41:10.349Z,35
2017-09-01T07:42:10.076Z,35
2017-09-01T07:43:09.748Z,35
2017-09-01T07:44:10.422Z,35
2017-09-01T07:45:10.118Z,35
2017-09-01T07:46:10.786Z,35
2017-09-01T07:47:10.493Z,35
2017-09-01T07:48:09.551Z,35
2017-09-01T07:49:10.212Z,35
2017-09-01T07:50:10.260Z,35
2017-09-01T07:51:10.579Z,35
2017-09-01T07:52:10.639Z,35
2017-09-01T07:53:11.147Z,35
2017-09-01T07:54:10.685Z,30
2017-09-01T07:55:10.023Z,35
2017-09-01T07:56:10.379Z,35
2017-09-01T07:57:10.718Z,35
2017-09-01T07:58:10.403Z,35
2017-09-01T07:59:10.114Z,35
2017-09-01T08:00:10.477Z,30
2017-09-01T08:01:10.797Z,30
2017-09-01T08:02:10.543Z,30
2017-09-01T08:03:10.852Z,30
2017-09-01T08:04:10.549Z,30
2017-09-01T08:05:10.575Z,30
2017-09-01T08:06:10.591Z,30
2017-09-01T08:07:10.940Z,30
2017-09-01T08:08:10.352Z,30
2017-09-01T08:09:10.659Z,30
2017-09-01T08:10:10.395Z,30
2017-09-01T08:11:11.367Z,30
2017-09-01T08:12:10.731Z,25
2017-09-01T08:13:11.088Z,30
2017-09-01T08:14:10.775Z,25
2017-09-01T08:15:11.125Z,25
2017-09-01T08:16:10.512Z,25
2017-09-01T08:17:10.539Z,25
2017-09-01T08:18:10.543Z,25
2017-09-01T08:19:10.667Z,25
2017-09-01T08:20:11.104Z,25
2017-09-01T08:21:10.939Z,25
2017-09-01T08:22:11.691Z,30
2017-09-01T08:23:11.064Z,25
2017-09-01T08:24:11.105Z,20
2017-09-01T08:25:11.421Z,20
2017-09-01T08:26:11.457Z,20
2017-09-01T08:27:11.248Z,20
2017-09-01T08:28:11.237Z,20
2017-09-01T08:29:11.463Z,20
2017-09-01T08:30:11.250Z,20
2017-09-01T08:31:11.180Z,20
2017-09-01T08:32:10.951Z,20
2017-09-01T08:33:11.535Z,20
2017-09-01T08:34:11.559Z,20
2017-09-01T08:35:10.937Z,25
2017-09-01T08:36:11.299Z,30
2017-09-01T08:37:11.312Z,35
2017-09-01T08:38:11.658Z,40
2017-09-01T08:39:11.357Z,40
2017-09-01T08:40:11.367Z,40
2017-09-01T08:41:11.073Z,40
2017-09-01T08:42:11.748Z,40
2017-09-01T08:43:11.769Z,40
2017-09-01T08:44:11.458Z,40
2017-09-01T08:45:11.814Z,45
2017-09-01T08:46:11.194Z,40
2017-09-01T08:47:11.884Z,35
2017-09-01T08:48:12.214Z,30
2017-09-01T08:49:11.359Z,35
2017-09-01T08:50:11.941Z,35
2017-09-01T08:51:11.637Z,35
2017-09-01T08:52:11.977Z,30
2017-09-01T08:53:11.998Z,35
2017-09-01T08:54:12.361Z,40
2017-09-01T08:55:11.726Z,40
2017-09-01T08:56:12.395Z,45
2017-09-01T08:57:11.361Z,45
2017-09-01T08:58:12.217Z,45
2017-09-01T08:59:11.497Z,45
2017-09-01T09:00:12.163Z,45
2017-09-01T09:01:11.876Z,45
2017-09-01T09:02:12.210Z,45
2017-09-01T09:03:12.252Z,40
2017-09-01T09:04:11.938Z,40
2017-09-01T09:05:12.291Z,35
2017-09-01T09:06:11.984Z,35
2017-09-01T09:07:12.328Z,35
2017-09-01T09:08:12.362Z,35
2017-09-01T09:09:12.046Z,35
2017-09-01T09:10:12.722Z,35
2017-09-01T09:11:11.780Z,35
2017-09-01T09:12:12.223Z,30
2017-09-01T09:13:12.482Z,30
2017-09-01T09:14:12.181Z,30
2017-09-01T09:15:12.535Z,30
2017-09-01T09:16:11.977Z,30
2017-09-01T09:17:12.265Z,35
2017-09-01T09:18:12.347Z,35
2017-09-01T09:19:12.946Z,35
2017-09-01T09:20:12.005Z,35
2017-09-01T09:21:12.345Z,35
2017-09-01T09:22:12.365Z,35
2017-09-01T09:23:12.392Z,35
2017-09-01T09:24:12.114Z,35
2017-09-01T09:25:12.449Z,35
2017-09-01T09:26:12.473Z,35
2017-09-01T09:27:13.142Z,35
2017-09-01T09:28:12.504Z,35
2017-09-01T09:29:12.547Z,35
2017-09-01T09:30:12.242Z,35
2017-09-01T09:31:12.916Z,35
2017-09-01T09:32:12.608Z,30
2017-09-01T09:33:12.958Z,30
2017-09-01T09:34:13.312Z,30
2017-09-01T09:35:13.002Z,30
2017-09-01T09:36:13.027Z,30
2017-09-01T09:37:13.054Z,30
2017-09-01T09:38:12.181Z,30
2017-09-01T09:39:12.773Z,30
2017-09-01T09:40:13.127Z,30
2017-09-01T09:41:13.167Z,30
2017-09-01T09:42:12.847Z,30
2017-09-01T09:43:12.550Z,25
2017-09-01T09:44:12.581Z,25
2017-09-01T09:45:12.921Z,25
2017-09-01T09:46:12.941Z,25
2017-09-01T09:47:12.963Z,30
2017-09-01T09:48:13.005Z,30
2017-09-01T09:49:13.348Z,30
2017-09-01T09:50:12.401Z,30
2017-09-01T09:51:13.717Z,35
2017-09-01T09:52:13.407Z,35
2017-09-01T09:53:13.489Z,35
2017-09-01T09:54:13.145Z,35
2017-09-01T09:55:13.160Z,35
2017-09-01T09:56:13.843Z,35
2017-09-01T09:57:13.547Z,40
2017-09-01T09:58:13.884Z,40
2017-09-01T09:59:12.950Z,45
2017-09-01T10:00:13.340Z,45
2017-09-01T10:01:13.302Z,40
2017-09-01T10:02:13.026Z,40
2017-09-01T10:03:13.040Z,35
2017-09-01T10:04:13.396Z,35
2017-09-01T10:05:13.174Z,40
2017-09-01T10:06:13.502Z,40
2017-09-01T10:07:14.261Z,40
2017-09-01T10:08:13.981Z,40
2017-09-01T10:09:14.280Z,40
2017-09-01T10:10:12.880Z,40
2017-09-01T10:11:13.989Z,40
2017-09-01T10:12:13.576Z,40
2017-09-01T10:13:13.694Z,40
2017-09-01T10:14:13.727Z,40
2017-09-01T10:15:13.724Z,35
2017-09-01T10:16:13.723Z,35
2017-09-01T10:17:13.374Z,35
2017-09-01T10:18:14.743Z,40
2017-09-01T10:19:14.285Z,40
2017-09-01T10:20:14.283Z,40
2017-09-01T10:21:14.283Z,40
2017-09-01T10:22:14.290Z,45
2017-09-01T10:23:14.304Z,45
2017-09-01T10:24:13.965Z,45
2017-09-01T10:25:14.558Z,45
2017-09-01T10:26:13.269Z,40
2017-09-01T10:27:13.990Z,40
2017-09-01T10:28:13.652Z,40
2017-09-01T10:29:14.018Z,40
2017-09-01T10:30:14.337Z,35
2017-09-01T10:31:14.692Z,35
2017-09-01T10:32:13.740Z,30
2017-09-01T10:33:14.974Z,30
2017-09-01T10:34:14.203Z,30
2017-09-01T10:35:14.270Z,25
2017-09-01T10:36:14.589Z,25
2017-09-01T10:37:15.120Z,25
2017-09-01T10:38:15.145Z,20
2017-09-01T10:39:14.390Z,20
2017-09-01T10:40:14.697Z,20
2017-09-01T10:41:14.398Z,20
2017-09-01T10:42:14.742Z,20
2017-09-01T10:43:14.803Z,20
2017-09-01T10:44:15.131Z,15
2017-09-01T10:45:14.446Z,15
2017-09-01T10:46:14.442Z,15
2017-09-01T10:47:15.174Z,15
2017-09-01T10:48:14.975Z,15
2017-09-01T10:49:14.161Z,15
2017-09-01T10:50:14.183Z,20
2017-09-01T10:51:14.970Z,20
2017-09-01T10:52:15.242Z,20
2017-09-01T10:53:15.126Z,20
2017-09-01T10:54:16.467Z,25
2017-09-01T10:55:14.632Z,25
2017-09-01T10:56:14.651Z,25
2017-09-01T10:57:14.684Z,25
2017-09-01T10:58:15.031Z,25
2017-09-01T10:59:14.849Z,25
2017-09-01T11:00:15.412Z,25
2017-09-01T11:01:14.485Z,25
2017-09-01T11:02:14.806Z,25
2017-09-01T11:03:15.487Z,25
2017-09-01T11:04:15.318Z,30
2017-09-01T11:05:14.875Z,30
2017-09-01T11:06:14.914Z,30
2017-09-01T11:07:15.248Z,30
2017-09-01T11:08:15.270Z,30
2017-09-01T11:09:15.305Z,35
2017-09-01T11:10:15.322Z,35
2017-09-01T11:11:15.673Z,35
2017-09-01T11:12:15.121Z,35
2017-09-01T11:13:15.399Z,35
2017-09-01T11:14:15.425Z,35
2017-09-01T11:15:15.136Z,35
2017-09-01T11:16:15.802Z,35
2017-09-01T11:17:15.173Z,35
2017-09-01T11:18:14.879Z,35
2017-09-01T11:19:15.869Z,35
2017-09-01T11:20:15.243Z,35
2017-09-01T11:21:15.593Z,30
2017-09-01T11:22:15.624Z,25
2017-09-01T11:23:15.334Z,30
2017-09-01T11:24:15.541Z,30
2017-09-01T11:25:15.397Z,30
2017-09-01T11:26:15.749Z,35
2017-09-01T11:27:15.657Z,35
2017-09-01T11:28:16.312Z,40
2017-09-01T11:29:15.787Z,40
2017-09-01T11:30:15.807Z,35
2017-09-01T11:31:15.853Z,35
2017-09-01T11:32:15.568Z,35
2017-09-01T11:33:15.898Z,35
2017-09-01T11:34:16.243Z,35
2017-09-01T11:35:15.621Z,35
2017-09-01T11:36:15.642Z,40
2017-09-01T11:37:16.315Z,40
2017-09-01T11:38:16.027Z,35
2017-09-01T11:39:16.034Z,35
2017-09-01T11:40:15.418Z,35
2017-09-01T11:41:16.418Z,30
2017-09-01T11:42:15.796Z,30
2017-09-01T11:43:16.465Z,30
2017-09-01T11:44:15.848Z,35
2017-09-01T11:45:15.541Z,35
2017-09-01T11:46:16.218Z,40
2017-09-01T11:47:15.916Z,40
2017-09-01T11:48:16.257Z,40
2017-09-01T11:49:15.648Z,40
2017-09-01T11:50:16.307Z,40
2017-09-01T11:51:16.334Z,40
2017-09-01T11:52:16.049Z,40
2017-09-01T11:53:16.067Z,40
2017-09-01T11:54:16.431Z,40
2017-09-01T11:55:16.753Z,35
2017-09-01T11:56:16.559Z,35
2017-09-01T11:57:16.585Z,35
2017-09-01T11:58:16.911Z,35
2017-09-01T11:59:16.215Z,35
2017-09-01T12:00:15.911Z,35
2017-09-01T12:01:16.694Z,35
2017-09-01T12:02:16.279Z,35
2017-09-01T12:03:15.987Z,35
2017-09-01T12:04:16.374Z,35
2017-09-01T12:05:16.366Z,35
2017-09-01T12:06:16.383Z,35
2017-09-01T12:07:16.180Z,35
2017-09-01T12:08:17.190Z,35
2017-09-01T12:09:16.364Z,35
2017-09-01T12:10:16.358Z,30
2017-09-01T12:11:16.838Z,30
2017-09-01T12:12:17.006Z,30
2017-09-01T12:13:17.320Z,30
2017-09-01T12:14:16.678Z,30
2017-09-01T12:15:16.611Z,30
2017-09-01T12:16:17.144Z,30
2017-09-01T12:17:17.463Z,30
2017-09-01T12:18:17.466Z,30
2017-09-01T12:19:16.789Z,35
2017-09-01T12:20:17.462Z,35
2017-09-01T12:21:16.823Z,35
2017-09-01T12:22:16.684Z,30
2017-09-01T12:23:17.220Z,30
2017-09-01T12:24:17.212Z,30
2017-09-01T12:25:17.215Z,30
2017-09-01T12:26:17.213Z,30
2017-09-01T12:27:17.654Z,30
2017-09-01T12:28:17.153Z,30
2017-09-01T12:29:16.965Z,25
2017-09-01T12:30:17.318Z,25
2017-09-01T12:31:17.322Z,25
2017-09-01T12:32:17.362Z,25
2017-09-01T12:33:17.147Z,25
2017-09-01T12:34:17.397Z,25
2017-09-01T12:35:17.523Z,25
2017-09-01T12:36:17.450Z,25
2017-09-01T12:37:17.148Z,25
2017-09-01T12:38:17.820Z,25
2017-09-01T12:39:17.197Z,25
2017-09-01T12:40:17.886Z,20
2017-09-01T12:41:17.261Z,20
2017-09-01T12:42:17.606Z,20
2017-09-01T12:43:17.304Z,20
2017-09-01T12:44:17.003Z,20
2017-09-01T12:45:17.670Z,20
2017-09-01T12:46:18.032Z,20
2017-09-01T12:47:18.057Z,25
2017-09-01T12:48:17.743Z,25
2017-09-01T12:49:17.781Z,25
2017-09-01T12:50:17.486Z,25
2017-09-01T12:51:17.828Z,25
2017-09-01T12:52:17.850Z,25
2017-09-01T12:53:17.868Z,25
2017-09-01T12:54:17.251Z,30
2017-09-01T12:55:18.240Z,30
2017-09-01T12:56:17.948Z,30
2017-09-01T12:57:17.647Z,30
2017-09-01T12:58:17.677Z,35
2017-09-01T12:59:18.352Z,35
2017-09-01T13:00:18.399Z,40
2017-09-01T13:01:17.761Z,40
2017-09-01T13:02:17.130Z,45
2017-09-01T13:03:17.472Z,45
2017-09-01T13:04:18.170Z,45
2017-09-01T13:05:17.198Z,45
2017-09-01T13:06:18.206Z,45
2017-09-01T13:07:18.535Z,45
2017-09-01T13:08:18.250Z,45
2017-09-01T13:09:18.599Z,45
2017-09-01T13:10:17.971Z,45
2017-09-01T13:11:18.345Z,40
2017-09-01T13:12:18.703Z,35
2017-09-01T13:13:18.050Z,30
2017-09-01T13:14:18.393Z,25
2017-09-01T13:15:18.721Z,25
2017-09-01T13:16:18.779Z,25
2017-09-01T13:17:18.472Z,25
2017-09-01T13:18:18.503Z,20
2017-09-01T13:19:18.191Z,20
2017-09-01T13:20:18.553Z,25
2017-09-01T13:21:17.923Z,25
2017-09-01T13:22:18.922Z,30
2017-09-01T13:23:18.300Z,30
2017-09-01T13:24:18.330Z,20
2017-09-01T13:25:18.342Z,25
2017-09-01T13:26:18.374Z,25
2017-09-01T13:27:18.068Z,25
2017-09-01T13:28:18.094Z,35
2017-09-01T13:29:18.772Z,40
2017-09-01T13:30:19.114Z,40
2017-09-01T13:31:18.503Z,40
2017-09-01T13:32:18.518Z,45
2017-09-01T13:33:18.569Z,45
2017-09-01T13:34:18.570Z,40
2017-09-01T13:35:19.025Z,40
2017-09-01T13:36:19.309Z,40
2017-09-01T13:37:19.059Z,40
2017-09-01T13:38:18.339Z,35
2017-09-01T13:39:19.120Z,35
2017-09-01T13:40:19.142Z,35
2017-09-01T13:41:19.184Z,35
2017-09-01T13:42:18.887Z,35
2017-09-01T13:43:19.023Z,30
2017-09-01T13:44:19.024Z,30
2017-09-01T13:45:19.026Z,30
2017-09-01T13:46:19.335Z,30
2017-09-01T13:47:19.332Z,30
2017-09-01T13:48:19.007Z,30
2017-09-01T13:49:19.482Z,35
2017-09-01T13:50:19.492Z,35
2017-09-01T13:51:19.489Z,30
2017-09-01T13:52:19.880Z,30
2017-09-01T13:53:19.522Z,30
2017-09-01T13:54:19.490Z,30
2017-09-01T13:55:18.516Z,30
2017-09-01T13:56:18.888Z,25
2017-09-01T13:57:19.555Z,25
2017-09-01T13:58:19.549Z,20
2017-09-01T13:59:19.919Z,15
2017-09-01T14:00:19.543Z,15
2017-09-01T14:01:19.900Z,15
2017-09-01T14:02:19.708Z,15
2017-09-01T14:03:19.301Z,20
2017-09-01T14:04:19.744Z,20
2017-09-01T14:05:19.352Z,20
2017-09-01T14:06:20.114Z,20
2017-09-01T14:07:19.743Z,25
2017-09-01T14:08:20.080Z,20
2017-09-01T14:09:19.125Z,25
2017-09-01T14:10:19.897Z,20
2017-09-01T14:11:19.500Z,20
2017-09-01T14:12:19.200Z,20
2017-09-01T14:13:20.211Z,20
2017-09-01T14:14:20.253Z,20
2017-09-01T14:15:19.628Z,15
2017-09-01T14:16:20.880Z,20
2017-09-01T14:17:19.750Z,20
2017-09-01T14:18:19.749Z,15
2017-09-01T14:19:20.046Z,20
2017-09-01T14:20:19.746Z,20
2017-09-01T14:21:20.072Z,20
2017-09-01T14:22:20.427Z,20
2017-09-01T14:23:19.475Z,20
2017-09-01T14:24:19.852Z,20
2017-09-01T14:25:20.172Z,20
2017-09-01T14:26:19.912Z,20
2017-09-01T14:27:20.225Z,20
2017-09-01T14:28:20.253Z,20